sensor_id;sensor_type;location;lat;lon;timestamp;temperature;humidity
30949;HTU21D;17637;51.984;21.208;2022-08-03T00:03:39;17.98;-1.22
30949;HTU21D;17637;51.984;21.208;2022-08-03T00:08:43;17.85;-1.45
30949;HTU21D;17637;51.984;21.208;2022-08-03T00:13:46;17.77;-1.00
30949;HTU21D;17637;51.984;21.208;2022-08-03T00:18:51;17.81;-1.31
30949;HTU21D;17637;51.984;21.208;2022-08-03T00:23:54;17.75;-0.94
30949;HTU21D;17637;51.984;21.208;2022-08-03T00:28:58;17.77;-1.39
30949;HTU21D;17637;51.984;21.208;2022-08-03T00:34:03;17.72;-0.94
30949;HTU21D;17637;51.984;21.208;2022-08-03T00:39:07;17.60;-0.85
30949;HTU21D;17637;51.984;21.208;2022-08-03T00:44:10;17.58;-1.25
30949;HTU21D;17637;51.984;21.208;2022-08-03T00:49:15;17.55;-0.83
30949;HTU21D;17637;51.984;21.208;2022-08-03T00:54:19;17.62;-1.22
30949;HTU21D;17637;51.984;21.208;2022-08-03T00:59:22;17.64;-1.72
30949;HTU21D;17637;51.984;21.208;2022-08-03T01:04:26;17.51;-1.54
30949;HTU21D;17637;51.984;21.208;2022-08-03T01:09:37;17.52;-1.57
30949;HTU21D;17637;51.984;21.208;2022-08-03T01:14:47;17.46;-1.35
30949;HTU21D;17637;51.984;21.208;2022-08-03T01:19:58;17.41;-1.53
30949;HTU21D;17637;51.984;21.208;2022-08-03T01:25:08;17.36;-1.13
30949;HTU21D;17637;51.984;21.208;2022-08-03T01:30:14;17.35;-1.22
30949;HTU21D;17637;51.984;21.208;2022-08-03T01:35:25;17.24;-1.02
30949;HTU21D;17637;51.984;21.208;2022-08-03T01:40:31;17.22;-1.39
30949;HTU21D;17637;51.984;21.208;2022-08-03T01:45:37;17.21;-1.12
30949;HTU21D;17637;51.984;21.208;2022-08-03T01:50:41;17.19;-1.19
30949;HTU21D;17637;51.984;21.208;2022-08-03T01:55:46;17.04;-0.91
30949;HTU21D;17637;51.984;21.208;2022-08-03T02:00:52;17.08;-1.14
30949;HTU21D;17637;51.984;21.208;2022-08-03T02:06:01;17.08;-1.06
30949;HTU21D;17637;51.984;21.208;2022-08-03T02:11:24;17.03;-1.11
30949;HTU21D;17637;51.984;21.208;2022-08-03T02:16:30;16.95;-1.06
30949;HTU21D;17637;51.984;21.208;2022-08-03T02:21:36;16.87;-0.96
30949;HTU21D;17637;51.984;21.208;2022-08-03T02:27:01;16.70;-0.42
30949;HTU21D;17637;51.984;21.208;2022-08-03T02:32:12;16.65;-0.24
30949;HTU21D;17637;51.984;21.208;2022-08-03T02:37:17;16.65;-0.71
30949;HTU21D;17637;51.984;21.208;2022-08-03T02:42:22;16.59;-0.58
30949;HTU21D;17637;51.984;21.208;2022-08-03T02:47:28;16.52;-0.38
30949;HTU21D;17637;51.984;21.208;2022-08-03T02:52:54;16.58;-0.52
30949;HTU21D;17637;51.984;21.208;2022-08-03T02:57:58;16.60;-0.60
30949;HTU21D;17637;51.984;21.208;2022-08-03T03:03:04;16.55;-0.69
30949;HTU21D;17637;51.984;21.208;2022-08-03T03:08:09;16.48;-0.90
30949;HTU21D;17637;51.984;21.208;2022-08-03T03:13:21;16.49;-0.51
30949;HTU21D;17637;51.984;21.208;2022-08-03T03:18:26;16.47;-0.41
30949;HTU21D;17637;51.984;21.208;2022-08-03T03:23:31;16.46;-0.05
30949;HTU21D;17637;51.984;21.208;2022-08-03T03:28:37;16.55;-0.39
30949;HTU21D;17637;51.984;21.208;2022-08-03T03:33:41;16.69;-0.40
30949;HTU21D;17637;51.984;21.208;2022-08-03T03:38:45;16.76;-0.48
30949;HTU21D;17637;51.984;21.208;2022-08-03T03:43:48;16.81;-0.74
30949;HTU21D;17637;51.984;21.208;2022-08-03T03:48:54;16.98;-0.64
30949;HTU21D;17637;51.984;21.208;2022-08-03T03:53:58;17.10;-0.71
30949;HTU21D;17637;51.984;21.208;2022-08-03T03:59:01;17.22;-0.91
30949;HTU21D;17637;51.984;21.208;2022-08-03T04:04:06;17.28;-0.87
30949;HTU21D;17637;51.984;21.208;2022-08-03T04:09:28;17.47;-0.58
30949;HTU21D;17637;51.984;21.208;2022-08-03T04:14:51;17.74;-0.24
30949;HTU21D;17637;51.984;21.208;2022-08-03T04:19:59;17.97;-0.51
30949;HTU21D;17637;51.984;21.208;2022-08-03T04:25:08;18.25;-0.35
30949;HTU21D;17637;51.984;21.208;2022-08-03T04:30:13;18.51;-0.73
30949;HTU21D;17637;51.984;21.208;2022-08-03T04:35:18;18.79;-1.13
30949;HTU21D;17637;51.984;21.208;2022-08-03T04:40:43;19.11;-1.80
30949;HTU21D;17637;51.984;21.208;2022-08-03T04:45:48;19.29;-2.76
30949;HTU21D;17637;51.984;21.208;2022-08-03T04:50:54;19.54;-3.12
30949;HTU21D;17637;51.984;21.208;2022-08-03T04:56:03;19.65;-3.37
30949;HTU21D;17637;51.984;21.208;2022-08-03T05:01:06;19.79;-4.13
30949;HTU21D;17637;51.984;21.208;2022-08-03T05:06:11;19.99;-4.38
30949;HTU21D;17637;51.984;21.208;2022-08-03T05:11:17;19.89;-4.20
30949;HTU21D;17637;51.984;21.208;2022-08-03T05:16:21;20.15;-4.47
30949;HTU21D;17637;51.984;21.208;2022-08-03T05:21:25;20.28;-4.59
30949;HTU21D;17637;51.984;21.208;2022-08-03T05:26:48;20.31;-4.28
30949;HTU21D;17637;51.984;21.208;2022-08-03T05:31:52;20.42;-4.76
30949;HTU21D;17637;51.984;21.208;2022-08-03T05:36:56;20.45;-4.77
30949;HTU21D;17637;51.984;21.208;2022-08-03T05:41:59;20.51;-4.77
30949;HTU21D;17637;51.984;21.208;2022-08-03T05:47:03;20.53;-4.90
30949;HTU21D;17637;51.984;21.208;2022-08-03T05:52:07;20.64;-4.68
30949;HTU21D;17637;51.984;21.208;2022-08-03T05:57:17;20.72;-4.83
30949;HTU21D;17637;51.984;21.208;2022-08-03T06:02:22;20.88;-4.68
30949;HTU21D;17637;51.984;21.208;2022-08-03T06:07:27;20.96;-5.51
30949;HTU21D;17637;51.984;21.208;2022-08-03T06:12:30;21.10;-5.56
30949;HTU21D;17637;51.984;21.208;2022-08-03T06:17:43;21.14;-5.50
30949;HTU21D;17637;51.984;21.208;2022-08-03T06:22:48;21.38;118.91
30949;HTU21D;17637;51.984;21.208;2022-08-03T06:28:02;21.54;-5.79
30949;HTU21D;17637;51.984;21.208;2022-08-03T06:33:06;21.73;118.48
30949;HTU21D;17637;51.984;21.208;2022-08-03T06:38:11;22.01;118.00
30949;HTU21D;17637;51.984;21.208;2022-08-03T06:43:14;21.88;118.21
30949;HTU21D;17637;51.984;21.208;2022-08-03T06:48:18;22.23;118.35
30949;HTU21D;17637;51.984;21.208;2022-08-03T06:53:22;22.60;118.15
30949;HTU21D;17637;51.984;21.208;2022-08-03T06:58:25;23.11;117.34
30949;HTU21D;17637;51.984;21.208;2022-08-03T07:03:29;23.30;116.80
30949;HTU21D;17637;51.984;21.208;2022-08-03T07:08:33;23.57;116.92
30949;HTU21D;17637;51.984;21.208;2022-08-03T07:13:37;23.99;117.26
30949;HTU21D;17637;51.984;21.208;2022-08-03T07:18:43;24.40;115.82
30949;HTU21D;17637;51.984;21.208;2022-08-03T07:23:47;24.50;115.74
30949;HTU21D;17637;51.984;21.208;2022-08-03T07:28:51;24.47;116.04
30949;HTU21D;17637;51.984;21.208;2022-08-03T07:33:54;24.38;115.06
30949;HTU21D;17637;51.984;21.208;2022-08-03T07:38:59;24.29;114.83
30949;HTU21D;17637;51.984;21.208;2022-08-03T07:44:17;24.19;115.01
30949;HTU21D;17637;51.984;21.208;2022-08-03T07:49:20;24.30;115.17
30949;HTU21D;17637;51.984;21.208;2022-08-03T07:54:26;24.78;114.44
30949;HTU21D;17637;51.984;21.208;2022-08-03T07:59:29;24.84;113.93
30949;HTU21D;17637;51.984;21.208;2022-08-03T08:04:52;25.15;113.72
30949;HTU21D;17637;51.984;21.208;2022-08-03T08:09:58;25.06;114.32
30949;HTU21D;17637;51.984;21.208;2022-08-03T08:15:01;25.43;112.85
30949;HTU21D;17637;51.984;21.208;2022-08-03T08:20:05;25.56;113.61
30949;HTU21D;17637;51.984;21.208;2022-08-03T08:25:11;25.63;112.62
30949;HTU21D;17637;51.984;21.208;2022-08-03T08:30:17;26.10;112.44
30949;HTU21D;17637;51.984;21.208;2022-08-03T08:35:21;26.46;112.88
30949;HTU21D;17637;51.984;21.208;2022-08-03T08:40:26;26.67;111.90
30949;HTU21D;17637;51.984;21.208;2022-08-03T08:45:30;26.99;111.10
30949;HTU21D;17637;51.984;21.208;2022-08-03T08:50:34;27.11;110.51
30949;HTU21D;17637;51.984;21.208;2022-08-03T08:55:40;27.13;110.94
30949;HTU21D;17637;51.984;21.208;2022-08-03T09:01:01;27.26;108.13
30949;HTU21D;17637;51.984;21.208;2022-08-03T09:06:04;27.26;110.68
30949;HTU21D;17637;51.984;21.208;2022-08-03T09:11:10;27.21;109.71
30949;HTU21D;17637;51.984;21.208;2022-08-03T09:16:15;26.78;110.37
30949;HTU21D;17637;51.984;21.208;2022-08-03T09:21:24;26.40;111.24
30949;HTU21D;17637;51.984;21.208;2022-08-03T09:26:39;26.37;112.39
30949;HTU21D;17637;51.984;21.208;2022-08-03T09:31:59;26.34;112.00
30949;HTU21D;17637;51.984;21.208;2022-08-03T09:37:12;26.96;111.45
30949;HTU21D;17637;51.984;21.208;2022-08-03T09:42:18;26.93;110.27
30949;HTU21D;17637;51.984;21.208;2022-08-03T09:47:30;27.53;110.82
30949;HTU21D;17637;51.984;21.208;2022-08-03T09:52:34;27.54;109.38
30949;HTU21D;17637;51.984;21.208;2022-08-03T09:58:03;27.82;108.67
30949;HTU21D;17637;51.984;21.208;2022-08-03T10:03:07;27.69;105.56
30949;HTU21D;17637;51.984;21.208;2022-08-03T10:08:14;27.83;109.29
30949;HTU21D;17637;51.984;21.208;2022-08-03T10:13:19;28.00;108.41
30949;HTU21D;17637;51.984;21.208;2022-08-03T10:18:22;27.64;108.07
30949;HTU21D;17637;51.984;21.208;2022-08-03T10:23:26;27.88;108.77
30949;HTU21D;17637;51.984;21.208;2022-08-03T10:28:59;28.14;105.17
30949;HTU21D;17637;51.984;21.208;2022-08-03T10:34:05;27.71;105.26
30949;HTU21D;17637;51.984;21.208;2022-08-03T10:39:09;28.21;106.35
30949;HTU21D;17637;51.984;21.208;2022-08-03T10:44:23;27.70;104.53
30949;HTU21D;17637;51.984;21.208;2022-08-03T10:49:28;26.91;109.94
30949;HTU21D;17637;51.984;21.208;2022-08-03T10:54:41;26.56;110.80
30949;HTU21D;17637;51.984;21.208;2022-08-03T11:00:11;26.22;112.97
30949;HTU21D;17637;51.984;21.208;2022-08-03T11:05:25;26.20;116.20
30949;HTU21D;17637;51.984;21.208;2022-08-03T11:10:30;26.17;113.86
30949;HTU21D;17637;51.984;21.208;2022-08-03T11:15:36;26.31;113.34
30949;HTU21D;17637;51.984;21.208;2022-08-03T11:20:46;26.39;113.54
30949;HTU21D;17637;51.984;21.208;2022-08-03T11:26:12;26.33;112.76
30949;HTU21D;17637;51.984;21.208;2022-08-03T11:31:44;26.77;112.13
30949;HTU21D;17637;51.984;21.208;2022-08-03T11:37:20;26.73;109.81
30949;HTU21D;17637;51.984;21.208;2022-08-03T11:42:41;26.84;108.23
30949;HTU21D;17637;51.984;21.208;2022-08-03T11:47:48;26.90;108.91
30949;HTU21D;17637;51.984;21.208;2022-08-03T11:52:55;27.28;109.07
30949;HTU21D;17637;51.984;21.208;2022-08-03T11:57:58;27.53;108.59
30949;HTU21D;17637;51.984;21.208;2022-08-03T12:03:23;27.20;107.94
30949;HTU21D;17637;51.984;21.208;2022-08-03T12:08:30;26.73;107.66
30949;HTU21D;17637;51.984;21.208;2022-08-03T12:13:39;26.78;111.14
30949;HTU21D;17637;51.984;21.208;2022-08-03T12:19:05;26.65;110.62
30949;HTU21D;17637;51.984;21.208;2022-08-03T12:24:10;26.84;115.93
30949;HTU21D;17637;51.984;21.208;2022-08-03T12:29:16;27.31;112.79
30949;HTU21D;17637;51.984;21.208;2022-08-03T12:34:21;27.25;110.21
30949;HTU21D;17637;51.984;21.208;2022-08-03T12:39:25;27.14;110.91
30949;HTU21D;17637;51.984;21.208;2022-08-03T12:44:33;27.20;113.93
30949;HTU21D;17637;51.984;21.208;2022-08-03T12:49:45;27.26;107.38
30949;HTU21D;17637;51.984;21.208;2022-08-03T12:54:56;27.37;108.07
30949;HTU21D;17637;51.984;21.208;2022-08-03T13:00:09;27.54;107.80
30949;HTU21D;17637;51.984;21.208;2022-08-03T13:05:42;27.29;108.81
30949;HTU21D;17637;51.984;21.208;2022-08-03T13:10:45;27.37;110.55
30949;HTU21D;17637;51.984;21.208;2022-08-03T13:15:49;27.44;114.72
30949;HTU21D;17637;51.984;21.208;2022-08-03T13:20:55;27.54;114.67
30949;HTU21D;17637;51.984;21.208;2022-08-03T13:25:58;27.69;115.38
30949;HTU21D;17637;51.984;21.208;2022-08-03T13:31:01;27.80;107.66
30949;HTU21D;17637;51.984;21.208;2022-08-03T13:36:06;27.79;105.87
30949;HTU21D;17637;51.984;21.208;2022-08-03T13:41:10;27.73;104.36
30949;HTU21D;17637;51.984;21.208;2022-08-03T13:46:17;27.90;108.14
30949;HTU21D;17637;51.984;21.208;2022-08-03T13:51:23;27.93;103.55
30949;HTU21D;17637;51.984;21.208;2022-08-03T13:56:26;27.98;105.41
30949;HTU21D;17637;51.984;21.208;2022-08-03T14:01:29;27.80;105.57
30949;HTU21D;17637;51.984;21.208;2022-08-03T14:06:54;28.09;109.68
30949;HTU21D;17637;51.984;21.208;2022-08-03T14:11:57;28.14;109.41
30949;HTU21D;17637;51.984;21.208;2022-08-03T14:17:10;28.21;106.11
30949;HTU21D;17637;51.984;21.208;2022-08-03T14:22:15;28.17;106.42
30949;HTU21D;17637;51.984;21.208;2022-08-03T14:27:17;28.12;104.63
30949;HTU21D;17637;51.984;21.208;2022-08-03T14:32:21;28.02;103.23
30949;HTU21D;17637;51.984;21.208;2022-08-03T14:37:25;28.06;104.53
30949;HTU21D;17637;51.984;21.208;2022-08-03T14:42:29;27.99;104.55
30949;HTU21D;17637;51.984;21.208;2022-08-03T14:47:32;27.98;104.52
30949;HTU21D;17637;51.984;21.208;2022-08-03T14:52:57;28.11;101.01
30949;HTU21D;17637;51.984;21.208;2022-08-03T14:58:06;27.98;104.14
30949;HTU21D;17637;51.984;21.208;2022-08-03T15:03:23;28.23;107.59
30949;HTU21D;17637;51.984;21.208;2022-08-03T15:08:28;28.23;102.74
30949;HTU21D;17637;51.984;21.208;2022-08-03T15:13:31;28.29;106.12
30949;HTU21D;17637;51.984;21.208;2022-08-03T15:18:34;28.30;109.72
30949;HTU21D;17637;51.984;21.208;2022-08-03T15:23:39;28.06;101.70
30949;HTU21D;17637;51.984;21.208;2022-08-03T15:28:42;28.12;109.23
30949;HTU21D;17637;51.984;21.208;2022-08-03T15:33:46;28.12;106.54
30949;HTU21D;17637;51.984;21.208;2022-08-03T15:38:51;27.91;99.93
30949;HTU21D;17637;51.984;21.208;2022-08-03T15:43:54;28.19;105.66
30949;HTU21D;17637;51.984;21.208;2022-08-03T15:48:57;28.19;102.56
30949;HTU21D;17637;51.984;21.208;2022-08-03T15:54:02;28.25;102.04
30949;HTU21D;17637;51.984;21.208;2022-08-03T15:59:06;28.11;99.54
30949;HTU21D;17637;51.984;21.208;2022-08-03T16:04:14;28.08;104.55
30949;HTU21D;17637;51.984;21.208;2022-08-03T16:09:19;28.12;99.29
30949;HTU21D;17637;51.984;21.208;2022-08-03T16:14:42;28.08;106.69
30949;HTU21D;17637;51.984;21.208;2022-08-03T16:19:55;27.98;108.31
30949;HTU21D;17637;51.984;21.208;2022-08-03T16:25:00;27.99;107.47
30949;HTU21D;17637;51.984;21.208;2022-08-03T16:30:04;27.71;104.46
30949;HTU21D;17637;51.984;21.208;2022-08-03T16:35:08;27.65;105.50
30949;HTU21D;17637;51.984;21.208;2022-08-03T16:40:24;28.15;103.05
30949;HTU21D;17637;51.984;21.208;2022-08-03T16:45:28;28.93;104.05
30949;HTU21D;17637;51.984;21.208;2022-08-03T16:50:31;29.60;101.86
30949;HTU21D;17637;51.984;21.208;2022-08-03T16:55:36;29.78;98.75
30949;HTU21D;17637;51.984;21.208;2022-08-03T17:00:55;29.22;101.13
30949;HTU21D;17637;51.984;21.208;2022-08-03T17:06:01;28.63;103.09
30949;HTU21D;17637;51.984;21.208;2022-08-03T17:11:07;28.12;104.78
30949;HTU21D;17637;51.984;21.208;2022-08-03T17:16:11;27.69;105.80
30949;HTU21D;17637;51.984;21.208;2022-08-03T17:21:22;27.40;108.41
30949;HTU21D;17637;51.984;21.208;2022-08-03T17:26:33;27.11;109.10
30949;HTU21D;17637;51.984;21.208;2022-08-03T17:31:44;26.79;110.85
30949;HTU21D;17637;51.984;21.208;2022-08-03T17:36:51;26.60;108.75
30949;HTU21D;17637;51.984;21.208;2022-08-03T17:42:16;26.42;112.19
30949;HTU21D;17637;51.984;21.208;2022-08-03T17:47:33;26.13;115.69
30949;HTU21D;17637;51.984;21.208;2022-08-03T17:52:44;25.92;118.54
30949;HTU21D;17637;51.984;21.208;2022-08-03T17:58:17;25.63;118.92
30949;HTU21D;17637;51.984;21.208;2022-08-03T18:03:31;25.40;-4.92
30949;HTU21D;17637;51.984;21.208;2022-08-03T18:08:57;25.10;-3.39
30949;HTU21D;17637;51.984;21.208;2022-08-03T18:14:27;24.83;-0.51
30949;HTU21D;17637;51.984;21.208;2022-08-03T18:19:34;24.54;0.89
30949;HTU21D;17637;51.984;21.208;2022-08-03T18:24:58;24.26;2.74
30949;HTU21D;17637;51.984;21.208;2022-08-03T18:30:11;24.06;4.05
30949;HTU21D;17637;51.984;21.208;2022-08-03T18:35:18;23.84;4.24
30949;HTU21D;17637;51.984;21.208;2022-08-03T18:40:26;23.64;5.72
30949;HTU21D;17637;51.984;21.208;2022-08-03T18:45:35;23.41;6.69
30949;HTU21D;17637;51.984;21.208;2022-08-03T18:51:02;23.26;7.28
30949;HTU21D;17637;51.984;21.208;2022-08-03T18:56:21;23.08;8.37
30949;HTU21D;17637;51.984;21.208;2022-08-03T19:01:32;22.92;9.08
30949;HTU21D;17637;51.984;21.208;2022-08-03T19:07:01;22.80;9.70
30949;HTU21D;17637;51.984;21.208;2022-08-03T19:12:15;22.62;10.62
30949;HTU21D;17637;51.984;21.208;2022-08-03T19:17:33;22.49;10.88
30949;HTU21D;17637;51.984;21.208;2022-08-03T19:22:39;22.41;11.08
30949;HTU21D;17637;51.984;21.208;2022-08-03T19:27:47;22.39;11.43
30949;HTU21D;17637;51.984;21.208;2022-08-03T19:32:52;22.29;11.77
30949;HTU21D;17637;51.984;21.208;2022-08-03T19:37:57;22.18;11.79
30949;HTU21D;17637;51.984;21.208;2022-08-03T19:43:07;22.19;11.75
30949;HTU21D;17637;51.984;21.208;2022-08-03T19:48:13;22.02;12.35
30949;HTU21D;17637;51.984;21.208;2022-08-03T19:53:24;21.83;12.09
30949;HTU21D;17637;51.984;21.208;2022-08-03T19:58:38;21.72;12.49
30949;HTU21D;17637;51.984;21.208;2022-08-03T20:03:44;21.70;12.08
30949;HTU21D;17637;51.984;21.208;2022-08-03T20:08:50;21.77;12.34
30949;HTU21D;17637;51.984;21.208;2022-08-03T20:13:54;21.81;12.28
30949;HTU21D;17637;51.984;21.208;2022-08-03T20:19:00;21.85;12.64
30949;HTU21D;17637;51.984;21.208;2022-08-03T20:24:04;21.92;11.72
30949;HTU21D;17637;51.984;21.208;2022-08-03T20:29:29;22.04;10.48
30949;HTU21D;17637;51.984;21.208;2022-08-03T20:34:54;22.14;9.82
30949;HTU21D;17637;51.984;21.208;2022-08-03T20:39:59;22.12;10.36
30949;HTU21D;17637;51.984;21.208;2022-08-03T20:45:03;22.14;10.45
30949;HTU21D;17637;51.984;21.208;2022-08-03T20:50:28;22.07;10.71
30949;HTU21D;17637;51.984;21.208;2022-08-03T20:55:33;22.02;10.56
30949;HTU21D;17637;51.984;21.208;2022-08-03T21:00:58;22.04;9.17
30949;HTU21D;17637;51.984;21.208;2022-08-03T21:06:04;22.02;8.65
30949;HTU21D;17637;51.984;21.208;2022-08-03T21:11:10;21.98;8.47
30949;HTU21D;17637;51.984;21.208;2022-08-03T21:16:18;21.96;8.65
30949;HTU21D;17637;51.984;21.208;2022-08-03T21:21:28;21.92;8.28
30949;HTU21D;17637;51.984;21.208;2022-08-03T21:26:33;21.83;8.50
30949;HTU21D;17637;51.984;21.208;2022-08-03T21:31:39;21.76;8.14
30949;HTU21D;17637;51.984;21.208;2022-08-03T21:36:44;21.74;7.60
30949;HTU21D;17637;51.984;21.208;2022-08-03T21:41:47;21.70;8.00
30949;HTU21D;17637;51.984;21.208;2022-08-03T21:46:52;21.67;7.04
30949;HTU21D;17637;51.984;21.208;2022-08-03T21:51:59;21.64;7.57
30949;HTU21D;17637;51.984;21.208;2022-08-03T21:57:10;21.63;7.74
30949;HTU21D;17637;51.984;21.208;2022-08-03T22:02:15;21.53;7.67
30949;HTU21D;17637;51.984;21.208;2022-08-03T22:07:28;21.52;7.63
30949;HTU21D;17637;51.984;21.208;2022-08-03T22:12:31;21.48;7.63
30949;HTU21D;17637;51.984;21.208;2022-08-03T22:17:36;21.36;7.52
30949;HTU21D;17637;51.984;21.208;2022-08-03T22:23:02;21.34;7.15
30949;HTU21D;17637;51.984;21.208;2022-08-03T22:28:09;21.25;7.23
30949;HTU21D;17637;51.984;21.208;2022-08-03T22:33:13;21.19;7.16
30949;HTU21D;17637;51.984;21.208;2022-08-03T22:38:18;21.16;7.82
30949;HTU21D;17637;51.984;21.208;2022-08-03T22:43:22;21.17;7.88
30949;HTU21D;17637;51.984;21.208;2022-08-03T22:48:26;21.13;8.23
30949;HTU21D;17637;51.984;21.208;2022-08-03T22:53:37;21.09;8.34
30949;HTU21D;17637;51.984;21.208;2022-08-03T22:58:40;21.09;7.56
30949;HTU21D;17637;51.984;21.208;2022-08-03T23:03:48;20.92;7.76
30949;HTU21D;17637;51.984;21.208;2022-08-03T23:09:08;20.99;7.83
30949;HTU21D;17637;51.984;21.208;2022-08-03T23:14:12;20.95;7.98
30949;HTU21D;17637;51.984;21.208;2022-08-03T23:19:18;20.87;7.76
30949;HTU21D;17637;51.984;21.208;2022-08-03T23:24:28;20.85;8.46
30949;HTU21D;17637;51.984;21.208;2022-08-03T23:29:33;20.81;8.66
30949;HTU21D;17637;51.984;21.208;2022-08-03T23:34:38;20.77;8.58
30949;HTU21D;17637;51.984;21.208;2022-08-03T23:40:02;20.73;8.52
30949;HTU21D;17637;51.984;21.208;2022-08-03T23:45:06;20.68;8.52
30949;HTU21D;17637;51.984;21.208;2022-08-03T23:50:09;20.64;8.85
30949;HTU21D;17637;51.984;21.208;2022-08-03T23:55:30;20.60;8.86
